sensor_id;sensor_type;location;lat;lon;timestamp;temperature;humidity
49132;DHT22;35149;51.196;6.204;2023-09-12T00:01:22;23.40;69.10
49132;DHT22;35149;51.196;6.204;2023-09-12T00:03:49;23.30;68.40
49132;DHT22;35149;51.196;6.204;2023-09-12T00:06:20;23.30;67.90
49132;DHT22;35149;51.196;6.204;2023-09-12T00:08:47;23.30;68.60
49132;DHT22;35149;51.196;6.204;2023-09-12T00:11:15;23.30;68.40
49132;DHT22;35149;51.196;6.204;2023-09-12T00:13:44;23.20;68.20
49132;DHT22;35149;51.196;6.204;2023-09-12T00:16:15;23.20;69.20
49132;DHT22;35149;51.196;6.204;2023-09-12T00:18:42;23.20;69.20
49132;DHT22;35149;51.196;6.204;2023-09-12T00:21:11;23.20;69.70
49132;DHT22;35149;51.196;6.204;2023-09-12T00:23:47;23.20;70.00
49132;DHT22;35149;51.196;6.204;2023-09-12T00:26:19;23.20;70.20
49132;DHT22;35149;51.196;6.204;2023-09-12T00:28:50;23.20;70.60
49132;DHT22;35149;51.196;6.204;2023-09-12T00:31:17;23.20;70.30
49132;DHT22;35149;51.196;6.204;2023-09-12T00:33:44;23.20;70.30
49132;DHT22;35149;51.196;6.204;2023-09-12T00:36:11;23.20;70.30
49132;DHT22;35149;51.196;6.204;2023-09-12T00:38:38;23.20;70.40
49132;DHT22;35149;51.196;6.204;2023-09-12T00:41:09;23.20;70.30
49132;DHT22;35149;51.196;6.204;2023-09-12T00:43:36;23.20;70.80
49132;DHT22;35149;51.196;6.204;2023-09-12T00:46:02;23.20;70.10
49132;DHT22;35149;51.196;6.204;2023-09-12T00:48:29;23.20;70.30
49132;DHT22;35149;51.196;6.204;2023-09-12T00:50:58;23.20;70.70
49132;DHT22;35149;51.196;6.204;2023-09-12T00:53:26;23.30;70.90
49132;DHT22;35149;51.196;6.204;2023-09-12T00:55:57;23.30;71.00
49132;DHT22;35149;51.196;6.204;2023-09-12T00:58:25;23.30;71.60
49132;DHT22;35149;51.196;6.204;2023-09-12T01:00:55;23.30;71.20
49132;DHT22;35149;51.196;6.204;2023-09-12T01:03:27;23.40;71.00
49132;DHT22;35149;51.196;6.204;2023-09-12T01:05:54;23.40;70.70
49132;DHT22;35149;51.196;6.204;2023-09-12T01:08:24;23.50;70.80
49132;DHT22;35149;51.196;6.204;2023-09-12T01:10:52;23.40;70.80
49132;DHT22;35149;51.196;6.204;2023-09-12T01:13:24;23.50;71.00
49132;DHT22;35149;51.196;6.204;2023-09-12T01:15:51;23.50;70.50
49132;DHT22;35149;51.196;6.204;2023-09-12T01:18:20;23.50;70.50
49132;DHT22;35149;51.196;6.204;2023-09-12T01:21:06;23.60;70.60
49132;DHT22;35149;51.196;6.204;2023-09-12T01:24:04;23.60;70.60
49132;DHT22;35149;51.196;6.204;2023-09-12T01:29:21;23.50;70.90
49132;DHT22;35149;51.196;6.204;2023-09-12T01:31:52;23.70;70.20
49132;DHT22;35149;51.196;6.204;2023-09-12T01:34:25;23.70;70.40
49132;DHT22;35149;51.196;6.204;2023-09-12T01:36:51;23.70;70.40
49132;DHT22;35149;51.196;6.204;2023-09-12T01:39:18;23.70;70.40
49132;DHT22;35149;51.196;6.204;2023-09-12T01:41:46;23.70;70.30
49132;DHT22;35149;51.196;6.204;2023-09-12T01:44:15;23.70;70.20
49132;DHT22;35149;51.196;6.204;2023-09-12T01:46:46;23.70;70.30
49132;DHT22;35149;51.196;6.204;2023-09-12T01:49:18;23.70;70.50
49132;DHT22;35149;51.196;6.204;2023-09-12T01:51:51;23.70;70.20
49132;DHT22;35149;51.196;6.204;2023-09-12T01:54:19;23.70;69.80
49132;DHT22;35149;51.196;6.204;2023-09-12T01:56:54;23.70;70.00
49132;DHT22;35149;51.196;6.204;2023-09-12T01:59:24;23.70;70.60
49132;DHT22;35149;51.196;6.204;2023-09-12T02:01:51;23.70;70.10
49132;DHT22;35149;51.196;6.204;2023-09-12T02:04:24;23.70;70.50
49132;DHT22;35149;51.196;6.204;2023-09-12T02:06:53;23.70;70.30
49132;DHT22;35149;51.196;6.204;2023-09-12T02:09:20;23.70;70.50
49132;DHT22;35149;51.196;6.204;2023-09-12T02:11:50;23.70;70.50
49132;DHT22;35149;51.196;6.204;2023-09-12T02:14:19;23.70;70.40
49132;DHT22;35149;51.196;6.204;2023-09-12T02:16:46;23.60;70.30
49132;DHT22;35149;51.196;6.204;2023-09-12T02:19:15;23.60;70.30
49132;DHT22;35149;51.196;6.204;2023-09-12T02:21:42;23.60;70.80
49132;DHT22;35149;51.196;6.204;2023-09-12T02:24:11;23.50;70.30
49132;DHT22;35149;51.196;6.204;2023-09-12T02:26:37;23.50;70.30
49132;DHT22;35149;51.196;6.204;2023-09-12T02:29:06;23.50;71.00
49132;DHT22;35149;51.196;6.204;2023-09-12T02:31:34;23.40;70.80
49132;DHT22;35149;51.196;6.204;2023-09-12T02:34:00;23.40;70.50
49132;DHT22;35149;51.196;6.204;2023-09-12T02:36:28;23.40;70.70
49132;DHT22;35149;51.196;6.204;2023-09-12T02:38:55;23.40;70.80
49132;DHT22;35149;51.196;6.204;2023-09-12T02:41:23;23.40;70.80
49132;DHT22;35149;51.196;6.204;2023-09-12T02:43:57;23.40;70.70
49132;DHT22;35149;51.196;6.204;2023-09-12T02:46:25;23.40;70.90
49132;DHT22;35149;51.196;6.204;2023-09-12T02:48:53;23.40;70.80
49132;DHT22;35149;51.196;6.204;2023-09-12T02:51:25;23.40;70.90
49132;DHT22;35149;51.196;6.204;2023-09-12T02:53:52;23.40;71.00
49132;DHT22;35149;51.196;6.204;2023-09-12T02:56:19;23.30;70.90
49132;DHT22;35149;51.196;6.204;2023-09-12T02:58:46;23.30;70.80
49132;DHT22;35149;51.196;6.204;2023-09-12T03:01:21;23.30;71.00
49132;DHT22;35149;51.196;6.204;2023-09-12T03:03:51;23.30;71.10
49132;DHT22;35149;51.196;6.204;2023-09-12T03:06:18;23.30;70.90
49132;DHT22;35149;51.196;6.204;2023-09-12T03:08:45;23.30;70.80
49132;DHT22;35149;51.196;6.204;2023-09-12T03:11:11;23.20;70.70
49132;DHT22;35149;51.196;6.204;2023-09-12T03:13:41;23.20;71.00
49132;DHT22;35149;51.196;6.204;2023-09-12T03:16:12;23.20;71.40
49132;DHT22;35149;51.196;6.204;2023-09-12T03:18:38;23.20;71.00
49132;DHT22;35149;51.196;6.204;2023-09-12T03:21:08;23.20;71.10
49132;DHT22;35149;51.196;6.204;2023-09-12T03:23:35;23.20;71.20
49132;DHT22;35149;51.196;6.204;2023-09-12T03:26:03;23.20;71.20
49132;DHT22;35149;51.196;6.204;2023-09-12T03:28:31;23.10;71.30
49132;DHT22;35149;51.196;6.204;2023-09-12T03:31:14;23.10;71.50
49132;DHT22;35149;51.196;6.204;2023-09-12T03:33:43;23.20;72.30
49132;DHT22;35149;51.196;6.204;2023-09-12T03:36:19;23.10;71.60
49132;DHT22;35149;51.196;6.204;2023-09-12T03:38:47;23.20;71.80
49132;DHT22;35149;51.196;6.204;2023-09-12T03:41:15;23.10;72.00
49132;DHT22;35149;51.196;6.204;2023-09-12T03:43:41;23.10;72.70
49132;DHT22;35149;51.196;6.204;2023-09-12T03:46:11;23.10;71.90
49132;DHT22;35149;51.196;6.204;2023-09-12T03:48:40;23.10;71.90
49132;DHT22;35149;51.196;6.204;2023-09-12T03:51:07;23.20;71.90
49132;DHT22;35149;51.196;6.204;2023-09-12T03:53:36;23.20;72.00
49132;DHT22;35149;51.196;6.204;2023-09-12T03:56:05;23.20;72.00
49132;DHT22;35149;51.196;6.204;2023-09-12T03:58:35;23.20;72.10
49132;DHT22;35149;51.196;6.204;2023-09-12T04:01:04;23.20;72.40
49132;DHT22;35149;51.196;6.204;2023-09-12T04:03:30;23.20;71.40
49132;DHT22;35149;51.196;6.204;2023-09-12T04:06:00;23.20;71.50
49132;DHT22;35149;51.196;6.204;2023-09-12T04:08:31;23.20;72.00
49132;DHT22;35149;51.196;6.204;2023-09-12T04:11:00;23.20;71.90
49132;DHT22;35149;51.196;6.204;2023-09-12T04:13:31;23.20;72.10
49132;DHT22;35149;51.196;6.204;2023-09-12T04:15:59;23.20;72.20
49132;DHT22;35149;51.196;6.204;2023-09-12T04:18:26;23.20;72.00
49132;DHT22;35149;51.196;6.204;2023-09-12T04:20:54;23.20;72.10
49132;DHT22;35149;51.196;6.204;2023-09-12T04:23:25;23.20;72.10
49132;DHT22;35149;51.196;6.204;2023-09-12T04:25:52;23.20;72.20
49132;DHT22;35149;51.196;6.204;2023-09-12T04:28:19;23.10;72.10
49132;DHT22;35149;51.196;6.204;2023-09-12T04:30:49;23.20;73.00
49132;DHT22;35149;51.196;6.204;2023-09-12T04:33:16;23.20;72.10
49132;DHT22;35149;51.196;6.204;2023-09-12T04:35:45;23.20;72.20
49132;DHT22;35149;51.196;6.204;2023-09-12T04:38:12;23.20;72.10
49132;DHT22;35149;51.196;6.204;2023-09-12T04:40:39;23.10;71.80
49132;DHT22;35149;51.196;6.204;2023-09-12T04:43:09;23.10;71.50
49132;DHT22;35149;51.196;6.204;2023-09-12T04:45:36;23.10;71.60
49132;DHT22;35149;51.196;6.204;2023-09-12T04:48:06;23.10;71.50
49132;DHT22;35149;51.196;6.204;2023-09-12T04:50:33;23.10;72.00
49132;DHT22;35149;51.196;6.204;2023-09-12T04:53:03;23.10;72.00
49132;DHT22;35149;51.196;6.204;2023-09-12T04:55:37;23.10;72.50
49132;DHT22;35149;51.196;6.204;2023-09-12T04:58:12;23.10;72.30
49132;DHT22;35149;51.196;6.204;2023-09-12T05:00:42;23.10;72.10
49132;DHT22;35149;51.196;6.204;2023-09-12T05:03:10;23.10;72.00
49132;DHT22;35149;51.196;6.204;2023-09-12T05:05:46;23.10;72.00
49132;DHT22;35149;51.196;6.204;2023-09-12T05:08:14;23.10;72.20
49132;DHT22;35149;51.196;6.204;2023-09-12T05:10:44;23.00;72.20
49132;DHT22;35149;51.196;6.204;2023-09-12T05:13:22;23.00;72.70
49132;DHT22;35149;51.196;6.204;2023-09-12T05:15:51;23.00;72.50
49132;DHT22;35149;51.196;6.204;2023-09-12T05:18:18;23.00;72.50
49132;DHT22;35149;51.196;6.204;2023-09-12T05:20:47;22.90;72.80
49132;DHT22;35149;51.196;6.204;2023-09-12T05:23:14;22.90;73.20
49132;DHT22;35149;51.196;6.204;2023-09-12T05:25:40;22.90;73.20
49132;DHT22;35149;51.196;6.204;2023-09-12T05:28:09;22.80;73.10
49132;DHT22;35149;51.196;6.204;2023-09-12T05:30:36;22.80;73.30
49132;DHT22;35149;51.196;6.204;2023-09-12T05:33:06;22.70;73.20
49132;DHT22;35149;51.196;6.204;2023-09-12T05:35:33;22.70;73.50
49132;DHT22;35149;51.196;6.204;2023-09-12T05:38:00;22.70;73.90
49132;DHT22;35149;51.196;6.204;2023-09-12T05:40:28;22.70;74.00
49132;DHT22;35149;51.196;6.204;2023-09-12T05:42:54;22.70;74.10
49132;DHT22;35149;51.196;6.204;2023-09-12T05:45:21;22.60;73.80
49132;DHT22;35149;51.196;6.204;2023-09-12T05:47:49;22.60;74.40
49132;DHT22;35149;51.196;6.204;2023-09-12T05:50:17;22.60;74.70
49132;DHT22;35149;51.196;6.204;2023-09-12T05:52:43;22.60;75.00
49132;DHT22;35149;51.196;6.204;2023-09-12T05:55:13;22.60;74.90
49132;DHT22;35149;51.196;6.204;2023-09-12T05:57:48;22.60;74.60
49132;DHT22;35149;51.196;6.204;2023-09-12T06:00:20;22.60;74.30
49132;DHT22;35149;51.196;6.204;2023-09-12T06:02:47;22.60;74.20
49132;DHT22;35149;51.196;6.204;2023-09-12T06:05:15;22.60;74.40
49132;DHT22;35149;51.196;6.204;2023-09-12T06:07:42;22.60;74.50
49132;DHT22;35149;51.196;6.204;2023-09-12T06:10:12;22.50;74.30
49132;DHT22;35149;51.196;6.204;2023-09-12T06:12:38;22.50;74.80
49132;DHT22;35149;51.196;6.204;2023-09-12T06:15:06;22.50;75.00
49132;DHT22;35149;51.196;6.204;2023-09-12T06:17:35;22.50;75.10
49132;DHT22;35149;51.196;6.204;2023-09-12T06:20:02;22.60;75.50
49132;DHT22;35149;51.196;6.204;2023-09-12T06:22:32;22.60;75.70
49132;DHT22;35149;51.196;6.204;2023-09-12T06:25:03;22.60;75.80
49132;DHT22;35149;51.196;6.204;2023-09-12T06:27:35;22.70;76.10
49132;DHT22;35149;51.196;6.204;2023-09-12T06:30:02;22.70;75.90
49132;DHT22;35149;51.196;6.204;2023-09-12T06:32:31;22.70;75.40
49132;DHT22;35149;51.196;6.204;2023-09-12T06:34:58;22.70;75.30
49132;DHT22;35149;51.196;6.204;2023-09-12T06:37:27;22.70;75.40
49132;DHT22;35149;51.196;6.204;2023-09-12T06:39:56;22.80;75.50
49132;DHT22;35149;51.196;6.204;2023-09-12T06:42:25;22.80;75.70
49132;DHT22;35149;51.196;6.204;2023-09-12T06:44:54;22.80;75.30
49132;DHT22;35149;51.196;6.204;2023-09-12T06:47:25;22.90;75.20
49132;DHT22;35149;51.196;6.204;2023-09-12T06:49:54;22.90;74.90
49132;DHT22;35149;51.196;6.204;2023-09-12T06:52:24;22.90;74.80
49132;DHT22;35149;51.196;6.204;2023-09-12T06:54:51;22.90;74.60
49132;DHT22;35149;51.196;6.204;2023-09-12T06:57:18;23.00;74.40
49132;DHT22;35149;51.196;6.204;2023-09-12T06:59:49;22.80;74.50
49132;DHT22;35149;51.196;6.204;2023-09-12T07:02:18;23.00;75.00
49132;DHT22;35149;51.196;6.204;2023-09-12T07:04:45;23.00;74.70
49132;DHT22;35149;51.196;6.204;2023-09-12T07:07:14;23.00;74.80
49132;DHT22;35149;51.196;6.204;2023-09-12T07:09:41;23.00;74.90
49132;DHT22;35149;51.196;6.204;2023-09-12T07:12:15;23.00;75.00
49132;DHT22;35149;51.196;6.204;2023-09-12T07:14:42;23.00;74.80
49132;DHT22;35149;51.196;6.204;2023-09-12T07:17:08;23.00;74.90
49132;DHT22;35149;51.196;6.204;2023-09-12T07:19:41;23.00;75.20
49132;DHT22;35149;51.196;6.204;2023-09-12T07:22:10;23.10;74.80
49132;DHT22;35149;51.196;6.204;2023-09-12T07:24:37;23.10;74.70
49132;DHT22;35149;51.196;6.204;2023-09-12T07:27:04;23.20;74.70
49132;DHT22;35149;51.196;6.204;2023-09-12T07:29:30;23.20;74.80
49132;DHT22;35149;51.196;6.204;2023-09-12T07:31:57;23.30;74.30
49132;DHT22;35149;51.196;6.204;2023-09-12T07:34:29;23.40;74.80
49132;DHT22;35149;51.196;6.204;2023-09-12T07:36:56;23.40;74.40
49132;DHT22;35149;51.196;6.204;2023-09-12T07:39:24;23.40;74.30
49132;DHT22;35149;51.196;6.204;2023-09-12T07:41:50;23.60;74.10
49132;DHT22;35149;51.196;6.204;2023-09-12T07:44:22;23.60;74.20
49132;DHT22;35149;51.196;6.204;2023-09-12T07:46:51;23.60;73.70
49132;DHT22;35149;51.196;6.204;2023-09-12T07:49:19;23.70;73.40
49132;DHT22;35149;51.196;6.204;2023-09-12T07:51:47;23.70;72.80
49132;DHT22;35149;51.196;6.204;2023-09-12T07:54:22;23.70;72.30
49132;DHT22;35149;51.196;6.204;2023-09-12T07:56:52;23.70;72.30
49132;DHT22;35149;51.196;6.204;2023-09-12T07:59:18;23.70;71.50
49132;DHT22;35149;51.196;6.204;2023-09-12T08:01:47;23.70;72.20
49132;DHT22;35149;51.196;6.204;2023-09-12T08:04:14;23.70;71.90
49132;DHT22;35149;51.196;6.204;2023-09-12T08:06:41;23.70;72.20
49132;DHT22;35149;51.196;6.204;2023-09-12T08:09:23;23.70;72.20
49132;DHT22;35149;51.196;6.204;2023-09-12T08:11:53;23.80;72.20
49132;DHT22;35149;51.196;6.204;2023-09-12T08:14:19;23.70;72.20
49132;DHT22;35149;51.196;6.204;2023-09-12T08:16:48;23.70;72.40
49132;DHT22;35149;51.196;6.204;2023-09-12T08:19:14;23.70;72.30
49132;DHT22;35149;51.196;6.204;2023-09-12T08:21:50;23.70;71.80
49132;DHT22;35149;51.196;6.204;2023-09-12T08:24:16;23.70;71.90
49132;DHT22;35149;51.196;6.204;2023-09-12T08:26:43;23.70;71.60
49132;DHT22;35149;51.196;6.204;2023-09-12T08:29:10;23.70;71.90
49132;DHT22;35149;51.196;6.204;2023-09-12T08:31:36;23.70;72.60
49132;DHT22;35149;51.196;6.204;2023-09-12T08:34:05;23.70;71.50
49132;DHT22;35149;51.196;6.204;2023-09-12T08:36:43;23.70;71.40
49132;DHT22;35149;51.196;6.204;2023-09-12T08:39:12;23.70;71.10
49132;DHT22;35149;51.196;6.204;2023-09-12T08:41:45;23.70;72.20
49132;DHT22;35149;51.196;6.204;2023-09-12T08:44:23;23.70;71.70
49132;DHT22;35149;51.196;6.204;2023-09-12T08:46:52;23.70;71.60
49132;DHT22;35149;51.196;6.204;2023-09-12T08:49:19;23.70;71.70
49132;DHT22;35149;51.196;6.204;2023-09-12T08:51:46;23.80;71.80
49132;DHT22;35149;51.196;6.204;2023-09-12T08:54:13;23.80;71.50
49132;DHT22;35149;51.196;6.204;2023-09-12T08:56:43;23.80;71.30
49132;DHT22;35149;51.196;6.204;2023-09-12T08:59:11;23.80;71.00
49132;DHT22;35149;51.196;6.204;2023-09-12T09:01:42;23.80;70.80
49132;DHT22;35149;51.196;6.204;2023-09-12T09:04:13;23.90;70.60
49132;DHT22;35149;51.196;6.204;2023-09-12T09:06:47;24.00;70.50
49132;DHT22;35149;51.196;6.204;2023-09-12T09:09:18;24.00;70.10
49132;DHT22;35149;51.196;6.204;2023-09-12T09:11:45;24.00;69.60
49132;DHT22;35149;51.196;6.204;2023-09-12T09:14:13;24.00;69.70
49132;DHT22;35149;51.196;6.204;2023-09-12T09:16:43;24.00;69.80
49132;DHT22;35149;51.196;6.204;2023-09-12T09:19:11;24.00;69.70
49132;DHT22;35149;51.196;6.204;2023-09-12T09:21:38;24.10;70.00
49132;DHT22;35149;51.196;6.204;2023-09-12T09:24:10;24.20;70.40
49132;DHT22;35149;51.196;6.204;2023-09-12T09:26:48;24.20;70.90
49132;DHT22;35149;51.196;6.204;2023-09-12T09:29:19;24.30;70.60
49132;DHT22;35149;51.196;6.204;2023-09-12T09:31:53;24.30;70.00
49132;DHT22;35149;51.196;6.204;2023-09-12T09:34:21;24.30;70.00
49132;DHT22;35149;51.196;6.204;2023-09-12T09:36:54;24.30;69.60
49132;DHT22;35149;51.196;6.204;2023-09-12T09:39:27;24.30;69.60
49132;DHT22;35149;51.196;6.204;2023-09-12T09:41:58;24.40;69.30
49132;DHT22;35149;51.196;6.204;2023-09-12T09:44:31;24.40;69.60
49132;DHT22;35149;51.196;6.204;2023-09-12T09:47:00;24.50;69.90
49132;DHT22;35149;51.196;6.204;2023-09-12T09:49:33;24.50;69.80
49132;DHT22;35149;51.196;6.204;2023-09-12T09:52:05;24.50;70.00
49132;DHT22;35149;51.196;6.204;2023-09-12T09:54:43;24.60;69.40
49132;DHT22;35149;51.196;6.204;2023-09-12T09:57:12;24.70;69.70
49132;DHT22;35149;51.196;6.204;2023-09-12T09:59:50;24.70;69.70
49132;DHT22;35149;51.196;6.204;2023-09-12T10:02:27;24.70;69.30
49132;DHT22;35149;51.196;6.204;2023-09-12T10:04:55;24.80;69.70
49132;DHT22;35149;51.196;6.204;2023-09-12T10:07:27;24.90;69.30
49132;DHT22;35149;51.196;6.204;2023-09-12T10:10:02;24.90;68.60
49132;DHT22;35149;51.196;6.204;2023-09-12T10:12:36;25.00;68.40
49132;DHT22;35149;51.196;6.204;2023-09-12T10:15:07;25.10;68.00
49132;DHT22;35149;51.196;6.204;2023-09-12T10:17:37;25.10;67.80
49132;DHT22;35149;51.196;6.204;2023-09-12T10:20:15;25.20;67.70
49132;DHT22;35149;51.196;6.204;2023-09-12T10:23:07;25.30;67.70
49132;DHT22;35149;51.196;6.204;2023-09-12T10:25:40;25.30;67.50
49132;DHT22;35149;51.196;6.204;2023-09-12T10:28:13;25.40;67.80
49132;DHT22;35149;51.196;6.204;2023-09-12T10:30:41;25.40;67.00
49132;DHT22;35149;51.196;6.204;2023-09-12T10:33:18;25.50;66.90
49132;DHT22;35149;51.196;6.204;2023-09-12T10:35:46;25.60;66.80
49132;DHT22;35149;51.196;6.204;2023-09-12T10:38:16;25.60;67.10
49132;DHT22;35149;51.196;6.204;2023-09-12T10:40:53;25.70;67.30
49132;DHT22;35149;51.196;6.204;2023-09-12T10:43:21;25.80;66.60
49132;DHT22;35149;51.196;6.204;2023-09-12T10:45:51;25.90;65.70
49132;DHT22;35149;51.196;6.204;2023-09-12T10:48:19;26.00;65.30
49132;DHT22;35149;51.196;6.204;2023-09-12T10:50:46;26.10;65.30
49132;DHT22;35149;51.196;6.204;2023-09-12T10:53:15;26.10;65.60
49132;DHT22;35149;51.196;6.204;2023-09-12T10:55:42;26.20;66.00
49132;DHT22;35149;51.196;6.204;2023-09-12T10:58:24;26.20;65.90
49132;DHT22;35149;51.196;6.204;2023-09-12T11:01:21;26.20;64.70
49132;DHT22;35149;51.196;6.204;2023-09-12T11:03:52;26.20;65.80
49132;DHT22;35149;51.196;6.204;2023-09-12T11:06:36;26.20;64.80
49132;DHT22;35149;51.196;6.204;2023-09-12T11:11:44;26.20;65.20
49132;DHT22;35149;51.196;6.204;2023-09-12T11:14:16;26.20;64.60
49132;DHT22;35149;51.196;6.204;2023-09-12T11:16:45;26.20;64.10
49132;DHT22;35149;51.196;6.204;2023-09-12T11:19:47;26.20;64.10
49132;DHT22;35149;51.196;6.204;2023-09-12T11:22:31;26.30;64.30
49132;DHT22;35149;51.196;6.204;2023-09-12T11:28:02;26.40;63.90
49132;DHT22;35149;51.196;6.204;2023-09-12T11:30:34;26.40;63.30
49132;DHT22;35149;51.196;6.204;2023-09-12T11:33:04;26.40;63.40
49132;DHT22;35149;51.196;6.204;2023-09-12T11:35:37;26.50;63.20
49132;DHT22;35149;51.196;6.204;2023-09-12T11:38:10;26.60;63.90
49132;DHT22;35149;51.196;6.204;2023-09-12T11:43:05;26.70;63.40
49132;DHT22;35149;51.196;6.204;2023-09-12T11:45:33;26.70;62.50
49132;DHT22;35149;51.196;6.204;2023-09-12T11:48:02;26.80;62.20
49132;DHT22;35149;51.196;6.204;2023-09-12T11:50:33;26.90;61.60
49132;DHT22;35149;51.196;6.204;2023-09-12T11:53:05;27.00;61.80
49132;DHT22;35149;51.196;6.204;2023-09-12T11:55:35;27.10;61.60
49132;DHT22;35149;51.196;6.204;2023-09-12T11:58:03;27.20;62.40
49132;DHT22;35149;51.196;6.204;2023-09-12T12:00:30;27.40;62.00
49132;DHT22;35149;51.196;6.204;2023-09-12T12:02:57;27.40;61.40
49132;DHT22;35149;51.196;6.204;2023-09-12T12:05:29;27.50;61.00
49132;DHT22;35149;51.196;6.204;2023-09-12T12:07:58;27.70;61.00
49132;DHT22;35149;51.196;6.204;2023-09-12T12:10:50;27.70;61.00
49132;DHT22;35149;51.196;6.204;2023-09-12T12:13:24;27.80;59.70
49132;DHT22;35149;51.196;6.204;2023-09-12T12:15:51;27.90;59.80
49132;DHT22;35149;51.196;6.204;2023-09-12T12:18:20;28.00;60.10
49132;DHT22;35149;51.196;6.204;2023-09-12T12:20:47;28.10;60.10
49132;DHT22;35149;51.196;6.204;2023-09-12T12:23:14;28.20;59.90
49132;DHT22;35149;51.196;6.204;2023-09-12T12:25:42;28.30;60.30
49132;DHT22;35149;51.196;6.204;2023-09-12T12:28:09;28.40;59.60
49132;DHT22;35149;51.196;6.204;2023-09-12T12:30:36;28.50;58.40
49132;DHT22;35149;51.196;6.204;2023-09-12T12:33:09;28.60;58.00
49132;DHT22;35149;51.196;6.204;2023-09-12T12:36:05;28.70;57.70
49132;DHT22;35149;51.196;6.204;2023-09-12T12:38:38;28.80;57.80
49132;DHT22;35149;51.196;6.204;2023-09-12T12:41:29;28.90;57.30
49132;DHT22;35149;51.196;6.204;2023-09-12T12:44:16;28.90;57.60
49132;DHT22;35149;51.196;6.204;2023-09-12T12:46:52;29.00;57.50
49132;DHT22;35149;51.196;6.204;2023-09-12T12:49:20;29.00;57.00
49132;DHT22;35149;51.196;6.204;2023-09-12T12:51:47;29.00;57.60
49132;DHT22;35149;51.196;6.204;2023-09-12T12:54:17;29.10;57.20
49132;DHT22;35149;51.196;6.204;2023-09-12T12:56:51;29.10;57.20
49132;DHT22;35149;51.196;6.204;2023-09-12T12:59:19;29.20;56.70
49132;DHT22;35149;51.196;6.204;2023-09-12T13:01:51;29.40;56.50
49132;DHT22;35149;51.196;6.204;2023-09-12T13:04:19;29.50;56.00
49132;DHT22;35149;51.196;6.204;2023-09-12T13:06:50;29.50;55.90
49132;DHT22;35149;51.196;6.204;2023-09-12T13:09:16;29.60;55.00
49132;DHT22;35149;51.196;6.204;2023-09-12T13:11:45;29.70;54.00
49132;DHT22;35149;51.196;6.204;2023-09-12T13:14:12;29.70;54.00
49132;DHT22;35149;51.196;6.204;2023-09-12T13:16:39;29.90;53.90
49132;DHT22;35149;51.196;6.204;2023-09-12T13:19:07;29.90;54.10
49132;DHT22;35149;51.196;6.204;2023-09-12T13:21:36;29.90;54.10
49132;DHT22;35149;51.196;6.204;2023-09-12T13:24:06;30.10;54.30
49132;DHT22;35149;51.196;6.204;2023-09-12T13:26:33;30.20;53.90
49132;DHT22;35149;51.196;6.204;2023-09-12T13:29:00;30.30;53.20
49132;DHT22;35149;51.196;6.204;2023-09-12T13:31:26;30.30;52.60
49132;DHT22;35149;51.196;6.204;2023-09-12T13:33:53;30.40;52.40
49132;DHT22;35149;51.196;6.204;2023-09-12T13:36:20;30.50;52.50
49132;DHT22;35149;51.196;6.204;2023-09-12T13:38:49;30.70;51.90
49132;DHT22;35149;51.196;6.204;2023-09-12T13:41:18;31.20;52.20
49132;DHT22;35149;51.196;6.204;2023-09-12T13:43:44;31.80;52.90
49132;DHT22;35149;51.196;6.204;2023-09-12T13:46:15;32.60;52.90
49132;DHT22;35149;51.196;6.204;2023-09-12T13:48:43;33.50;51.50
49132;DHT22;35149;51.196;6.204;2023-09-12T13:51:14;34.30;49.60
49132;DHT22;35149;51.196;6.204;2023-09-12T13:53:41;35.10;48.80
49132;DHT22;35149;51.196;6.204;2023-09-12T13:56:12;35.60;46.10
49132;DHT22;35149;51.196;6.204;2023-09-12T13:58:39;36.10;44.30
49132;DHT22;35149;51.196;6.204;2023-09-12T14:01:13;36.20;44.10
49132;DHT22;35149;51.196;6.204;2023-09-12T14:03:56;36.30;44.60
49132;DHT22;35149;51.196;6.204;2023-09-12T14:06:26;36.50;44.60
49132;DHT22;35149;51.196;6.204;2023-09-12T14:08:55;36.90;44.10
49132;DHT22;35149;51.196;6.204;2023-09-12T14:11:22;37.30;47.70
49132;DHT22;35149;51.196;6.204;2023-09-12T14:14:04;37.90;43.90
49132;DHT22;35149;51.196;6.204;2023-09-12T14:16:34;38.60;42.60
49132;DHT22;35149;51.196;6.204;2023-09-12T14:19:04;39.10;42.50
49132;DHT22;35149;51.196;6.204;2023-09-12T14:21:35;39.70;40.70
49132;DHT22;35149;51.196;6.204;2023-09-12T14:24:07;40.20;40.30
49132;DHT22;35149;51.196;6.204;2023-09-12T14:26:36;40.80;39.70
49132;DHT22;35149;51.196;6.204;2023-09-12T14:29:05;41.30;38.50
49132;DHT22;35149;51.196;6.204;2023-09-12T14:31:32;41.80;37.40
49132;DHT22;35149;51.196;6.204;2023-09-12T14:33:58;42.30;37.10
49132;DHT22;35149;51.196;6.204;2023-09-12T14:36:25;42.70;35.90
49132;DHT22;35149;51.196;6.204;2023-09-12T14:38:58;43.10;35.30
49132;DHT22;35149;51.196;6.204;2023-09-12T14:41:24;43.40;34.40
49132;DHT22;35149;51.196;6.204;2023-09-12T14:43:51;43.70;34.00
49132;DHT22;35149;51.196;6.204;2023-09-12T14:46:19;44.00;33.60
49132;DHT22;35149;51.196;6.204;2023-09-12T14:48:51;44.20;33.60
49132;DHT22;35149;51.196;6.204;2023-09-12T14:51:27;44.30;32.80
49132;DHT22;35149;51.196;6.204;2023-09-12T14:54:01;44.50;32.70
49132;DHT22;35149;51.196;6.204;2023-09-12T14:56:28;44.60;33.20
49132;DHT22;35149;51.196;6.204;2023-09-12T14:58:55;44.70;32.40
49132;DHT22;35149;51.196;6.204;2023-09-12T15:01:22;44.60;32.00
49132;DHT22;35149;51.196;6.204;2023-09-12T15:03:54;44.60;32.00
49132;DHT22;35149;51.196;6.204;2023-09-12T15:06:21;44.50;35.80
49132;DHT22;35149;51.196;6.204;2023-09-12T15:08:51;44.30;32.40
49132;DHT22;35149;51.196;6.204;2023-09-12T15:11:17;44.00;31.70
49132;DHT22;35149;51.196;6.204;2023-09-12T15:13:47;43.50;31.90
49132;DHT22;35149;51.196;6.204;2023-09-12T15:16:16;43.00;31.70
49132;DHT22;35149;51.196;6.204;2023-09-12T15:18:52;42.40;32.10
49132;DHT22;35149;51.196;6.204;2023-09-12T15:21:20;42.00;32.80
49132;DHT22;35149;51.196;6.204;2023-09-12T15:23:49;41.70;33.00
49132;DHT22;35149;51.196;6.204;2023-09-12T15:26:15;41.40;33.90
49132;DHT22;35149;51.196;6.204;2023-09-12T15:28:45;41.30;33.40
49132;DHT22;35149;51.196;6.204;2023-09-12T15:31:12;41.30;33.50
49132;DHT22;35149;51.196;6.204;2023-09-12T15:33:38;41.30;33.20
49132;DHT22;35149;51.196;6.204;2023-09-12T15:36:05;41.30;33.10
49132;DHT22;35149;51.196;6.204;2023-09-12T15:38:34;41.00;34.10
49132;DHT22;35149;51.196;6.204;2023-09-12T15:41:02;40.70;35.00
49132;DHT22;35149;51.196;6.204;2023-09-12T15:43:31;40.30;35.20
49132;DHT22;35149;51.196;6.204;2023-09-12T15:45:58;39.80;35.20
49132;DHT22;35149;51.196;6.204;2023-09-12T15:48:27;39.30;36.00
49132;DHT22;35149;51.196;6.204;2023-09-12T15:50:54;38.80;36.40
49132;DHT22;35149;51.196;6.204;2023-09-12T15:53:21;38.40;37.40
49132;DHT22;35149;51.196;6.204;2023-09-12T15:55:53;38.00;38.10
49132;DHT22;35149;51.196;6.204;2023-09-12T15:58:22;37.60;37.70